createdAt,value
2022-07-29T00:00:52.326Z,3.63
2022-07-29T00:03:21.148Z,3.30
2022-07-29T00:05:53.573Z,3.27
2022-07-29T00:08:22.523Z,3.80
2022-07-29T00:10:52.768Z,3.50
2022-07-29T00:13:32.187Z,2.97
2022-07-29T00:16:04.360Z,3.40
2022-07-29T00:18:33.891Z,3.47
2022-07-29T00:21:02.954Z,3.87
2022-07-29T00:23:36.450Z,3.20
2022-07-29T00:26:06.026Z,3.60
2022-07-29T00:28:34.841Z,3.70
2022-07-29T00:31:03.568Z,4.13
2022-07-29T00:33:32.797Z,3.53
2022-07-29T00:36:01.449Z,3.50
2022-07-29T00:38:30.204Z,3.80
2022-07-29T00:40:58.855Z,3.70
2022-07-29T00:43:27.851Z,3.97
2022-07-29T00:45:56.520Z,3.93
2022-07-29T00:48:25.209Z,3.87
2022-07-29T00:50:54.092Z,3.43
2022-07-29T00:53:23.635Z,3.53
2022-07-29T00:55:54.494Z,3.50
2022-07-29T00:58:25.117Z,3.90
2022-07-29T01:00:54.142Z,4.20
2022-07-29T01:03:22.975Z,3.53
2022-07-29T01:05:53.023Z,3.30
2022-07-29T01:08:22.442Z,3.40
2022-07-29T01:10:54.330Z,4.00
2022-07-29T01:13:23.919Z,3.67
2022-07-29T01:16:08.129Z,3.30
2022-07-29T01:18:42.320Z,3.72
2022-07-29T01:21:42.491Z,3.30
2022-07-29T01:24:33.689Z,3.43
2022-07-29T01:27:12.585Z,3.10
2022-07-29T01:29:52.761Z,3.23
2022-07-29T01:32:29.224Z,2.70
2022-07-29T01:35:03.627Z,2.75
2022-07-29T01:40:05.822Z,2.77
2022-07-29T01:42:39.950Z,3.00
2022-07-29T01:45:15.718Z,3.13
2022-07-29T01:47:53.209Z,3.43
2022-07-29T01:50:26.700Z,2.73
2022-07-29T01:53:00.716Z,2.40
2022-07-29T01:55:32.874Z,3.50
2022-07-29T01:58:04.548Z,2.47
2022-07-29T02:00:35.035Z,2.90
2022-07-29T02:03:10.114Z,2.73
2022-07-29T02:05:41.359Z,2.27
2022-07-29T02:08:12.097Z,2.50
2022-07-29T02:10:43.124Z,2.27
2022-07-29T02:13:13.880Z,2.60
2022-07-29T02:15:45.452Z,2.20
2022-07-29T02:18:17.661Z,2.27
2022-07-29T02:20:53.645Z,1.83
2022-07-29T02:23:24.249Z,2.23
2022-07-29T02:25:57.473Z,1.90
2022-07-29T02:28:32.105Z,2.05
2022-07-29T02:31:03.972Z,2.00
2022-07-29T02:33:33.964Z,2.53
2022-07-29T02:36:03.877Z,2.30
2022-07-29T02:38:51.962Z,1.90
2022-07-29T02:41:24.441Z,2.17
2022-07-29T02:44:03.432Z,2.10
2022-07-29T02:46:36.561Z,2.00
2022-07-29T02:49:14.788Z,2.10
2022-07-29T02:51:46.926Z,1.80
2022-07-29T02:54:29.063Z,2.10
2022-07-29T02:57:00.087Z,2.20
2022-07-29T02:59:32.612Z,2.10
2022-07-29T03:02:03.327Z,2.20
2022-07-29T03:04:33.338Z,2.40
2022-07-29T03:07:02.921Z,1.87
2022-07-29T03:09:32.584Z,2.00
2022-07-29T03:12:02.711Z,1.83
2022-07-29T03:14:32.854Z,1.93
2022-07-29T03:17:02.508Z,1.70
2022-07-29T03:19:31.982Z,1.90
2022-07-29T03:22:00.635Z,1.70
2022-07-29T03:24:34.904Z,1.70
2022-07-29T03:27:04.799Z,1.63
2022-07-29T03:29:34.683Z,1.77
2022-07-29T03:32:08.272Z,2.13
2022-07-29T03:34:38.734Z,1.97
2022-07-29T03:37:07.955Z,1.80
2022-07-29T03:39:42.785Z,1.77
2022-07-29T03:42:15.985Z,1.70
2022-07-29T03:44:51.194Z,1.80
2022-07-29T03:47:43.449Z,2.27
2022-07-29T03:50:15.709Z,1.90
2022-07-29T03:52:45.254Z,2.10
2022-07-29T03:55:15.766Z,1.70
2022-07-29T03:57:46.076Z,2.20
2022-07-29T04:00:16.376Z,1.87
2022-07-29T04:02:48.755Z,1.93
2022-07-29T04:05:19.590Z,1.95
2022-07-29T04:07:50.847Z,2.20
2022-07-29T04:10:25.244Z,1.97
2022-07-29T04:13:02.379Z,1.90
2022-07-29T04:15:36.889Z,1.90
2022-07-29T04:18:06.755Z,2.20
2022-07-29T04:20:35.849Z,2.60
2022-07-29T04:23:07.178Z,2.00
2022-07-29T04:25:39.303Z,2.17
2022-07-29T04:28:08.478Z,1.70
2022-07-29T04:30:38.116Z,1.63
2022-07-29T04:33:08.113Z,2.20
2022-07-29T04:35:45.710Z,1.90
2022-07-29T04:38:19.202Z,2.00
2022-07-29T04:40:50.988Z,1.70
2022-07-29T04:43:22.573Z,1.70
2022-07-29T04:45:52.039Z,2.00
2022-07-29T04:48:25.298Z,1.80
2022-07-29T04:50:57.549Z,1.60
2022-07-29T04:53:26.729Z,1.93
2022-07-29T04:55:55.500Z,1.60
2022-07-29T04:58:24.311Z,1.70
2022-07-29T05:00:52.870Z,1.57
2022-07-29T05:03:21.449Z,1.53
2022-07-29T05:05:51.084Z,1.70
2022-07-29T05:08:21.851Z,1.40
2022-07-29T05:10:51.239Z,1.77
2022-07-29T05:13:19.782Z,1.53
2022-07-29T05:15:49.692Z,1.40
2022-07-29T05:18:18.426Z,1.70
2022-07-29T05:20:47.641Z,1.63
2022-07-29T05:23:18.465Z,1.60
2022-07-29T05:25:47.541Z,1.40
2022-07-29T05:28:17.097Z,1.57
2022-07-29T05:30:46.040Z,1.37
2022-07-29T05:33:34.867Z,1.63
2022-07-29T05:36:07.258Z,1.90
2022-07-29T05:38:36.612Z,1.67
2022-07-29T05:41:06.222Z,1.60
2022-07-29T05:43:35.169Z,1.70
2022-07-29T05:46:03.868Z,1.60
2022-07-29T05:48:32.733Z,1.90
2022-07-29T05:51:01.609Z,1.67
2022-07-29T05:53:30.190Z,1.60
2022-07-29T05:55:58.750Z,1.40
2022-07-29T05:58:28.844Z,1.50
2022-07-29T06:00:59.709Z,1.53
2022-07-29T06:03:28.531Z,1.47
2022-07-29T06:05:57.339Z,1.47
2022-07-29T06:08:26.006Z,1.50
2022-07-29T06:10:55.097Z,1.40
2022-07-29T06:13:24.470Z,1.30
2022-07-29T06:15:53.130Z,1.20
2022-07-29T06:18:24.324Z,1.00
2022-07-29T06:20:53.210Z,1.20
2022-07-29T06:23:23.629Z,1.20
2022-07-29T06:25:52.235Z,0.97
2022-07-29T06:28:20.762Z,1.50
2022-07-29T06:30:51.947Z,1.20
2022-07-29T06:33:20.925Z,1.40
2022-07-29T06:35:53.346Z,1.20
2022-07-29T06:38:31.124Z,1.10
2022-07-29T06:41:03.454Z,1.53
2022-07-29T06:43:50.324Z,1.20
2022-07-29T06:46:22.618Z,1.33
2022-07-29T06:48:53.356Z,1.40
2022-07-29T06:51:23.718Z,0.83
2022-07-29T06:53:58.277Z,1.10
2022-07-29T06:56:29.973Z,1.30
2022-07-29T06:58:59.436Z,1.40
2022-07-29T07:01:30.313Z,1.00
2022-07-29T07:03:59.157Z,1.23
2022-07-29T07:06:28.203Z,1.10
2022-07-29T07:08:57.169Z,0.90
2022-07-29T07:11:26.317Z,1.23
2022-07-29T07:13:58.050Z,1.30
2022-07-29T07:16:29.898Z,1.33
2022-07-29T07:18:58.675Z,1.60
2022-07-29T07:21:27.275Z,1.43
2022-07-29T07:23:59.799Z,0.97
2022-07-29T07:26:28.901Z,1.20
2022-07-29T07:28:58.486Z,1.40
2022-07-29T07:31:27.111Z,1.40
2022-07-29T07:33:56.884Z,1.30
2022-07-29T07:36:25.516Z,0.90
2022-07-29T07:38:54.346Z,1.27
2022-07-29T07:41:23.712Z,1.30
2022-07-29T07:43:52.513Z,1.17
2022-07-29T07:46:21.439Z,1.40
2022-07-29T07:48:52.807Z,1.20
2022-07-29T07:51:21.866Z,1.10
2022-07-29T07:53:51.249Z,1.50
2022-07-29T07:56:21.119Z,1.17
2022-07-29T07:58:52.256Z,1.17
2022-07-29T08:01:23.382Z,1.97
2022-07-29T08:03:52.222Z,1.40
2022-07-29T08:06:21.414Z,1.53
2022-07-29T08:08:51.935Z,1.00
2022-07-29T08:11:22.030Z,1.47
2022-07-29T08:13:51.498Z,1.20
2022-07-29T08:16:20.620Z,1.60
2022-07-29T08:18:50.450Z,1.80
2022-07-29T08:21:19.694Z,1.00
2022-07-29T08:23:59.913Z,1.10
2022-07-29T08:26:30.862Z,1.20
2022-07-29T08:28:59.518Z,1.70
2022-07-29T08:31:30.912Z,1.33
2022-07-29T08:34:01.001Z,1.13
2022-07-29T08:36:29.987Z,1.47
2022-07-29T08:38:59.890Z,1.47
2022-07-29T08:41:29.370Z,1.30
2022-07-29T08:43:58.431Z,1.37
2022-07-29T08:46:28.456Z,1.23
2022-07-29T08:48:57.555Z,1.27
2022-07-29T08:51:28.608Z,1.33
2022-07-29T08:53:58.324Z,1.93
2022-07-29T08:56:28.271Z,1.40
2022-07-29T08:59:00.262Z,1.43
2022-07-29T09:01:42.376Z,1.27
2022-07-29T09:04:16.620Z,1.63
2022-07-29T09:06:51.506Z,1.00
2022-07-29T09:09:21.121Z,1.40
2022-07-29T09:11:54.292Z,1.87
2022-07-29T09:16:54.443Z,1.30
2022-07-29T09:19:29.115Z,1.13
2022-07-29T09:21:59.655Z,1.40
2022-07-29T09:24:42.929Z,1.30
2022-07-29T09:27:21.873Z,1.30
2022-07-29T09:29:59.282Z,1.20
2022-07-29T09:32:29.908Z,1.27
2022-07-29T09:35:19.571Z,1.30
2022-07-29T09:37:51.016Z,1.00
2022-07-29T09:40:22.397Z,1.23
2022-07-29T09:42:56.250Z,1.30
2022-07-29T09:45:31.215Z,1.50
2022-07-29T09:48:03.505Z,1.07
2022-07-29T09:50:40.773Z,1.10
2022-07-29T09:53:11.112Z,0.93
2022-07-29T09:55:51.705Z,1.10
2022-07-29T09:58:23.129Z,1.20
2022-07-29T10:00:54.371Z,1.43
2022-07-29T10:03:24.242Z,3.37
2022-07-29T10:06:10.172Z,1.97
2022-07-29T10:08:39.408Z,1.80
2022-07-29T10:11:12.696Z,1.30
2022-07-29T10:13:42.771Z,1.00
2022-07-29T10:16:12.443Z,1.10
2022-07-29T10:18:44.420Z,1.10
2022-07-29T10:21:35.326Z,1.23
2022-07-29T10:24:04.971Z,1.30
2022-07-29T10:26:34.195Z,1.40
2022-07-29T10:29:02.986Z,1.07
2022-07-29T10:31:43.167Z,1.40
2022-07-29T10:34:21.816Z,1.40
2022-07-29T10:37:01.083Z,1.77
2022-07-29T10:39:52.577Z,0.93
2022-07-29T10:42:33.402Z,1.10
2022-07-29T10:45:04.854Z,1.50
2022-07-29T10:47:35.307Z,1.23
2022-07-29T10:50:06.762Z,1.27
2022-07-29T10:52:54.780Z,1.10
2022-07-29T10:55:37.058Z,1.20
2022-07-29T10:58:20.455Z,1.17
2022-07-29T11:00:52.814Z,1.50
2022-07-29T11:03:52.319Z,1.40
2022-07-29T11:06:26.196Z,1.07
2022-07-29T11:09:25.570Z,1.10
2022-07-29T11:12:04.457Z,1.07
2022-07-29T11:14:59.613Z,1.40
2022-07-29T11:17:37.373Z,1.30
2022-07-29T11:20:37.827Z,1.13
2022-07-29T11:23:24.901Z,1.20
2022-07-29T11:26:18.658Z,1.10
2022-07-29T11:29:00.643Z,1.00
2022-07-29T11:31:38.718Z,1.17
2022-07-29T11:34:28.116Z,1.17
2022-07-29T11:37:27.652Z,0.90
2022-07-29T11:40:19.674Z,1.10
2022-07-29T11:42:52.091Z,1.20
2022-07-29T11:45:41.415Z,1.30
2022-07-29T11:48:28.589Z,1.10
2022-07-29T11:51:09.973Z,1.10
2022-07-29T11:53:40.711Z,1.00
2022-07-29T11:56:16.469Z,1.00
2022-07-29T11:58:46.669Z,0.80
2022-07-29T12:01:19.380Z,1.30
2022-07-29T12:03:48.402Z,1.00
2022-07-29T12:06:20.924Z,1.00
2022-07-29T12:08:51.322Z,1.20
2022-07-29T12:11:22.377Z,0.70
2022-07-29T12:13:53.448Z,1.27
2022-07-29T12:16:25.958Z,1.17
2022-07-29T12:18:59.951Z,1.00
2022-07-29T12:21:29.232Z,0.90
2022-07-29T12:24:05.754Z,0.90
2022-07-29T12:26:51.767Z,0.70
2022-07-29T12:29:35.237Z,1.40
2022-07-29T12:32:06.850Z,1.00
2022-07-29T12:34:44.197Z,0.97
2022-07-29T12:37:13.501Z,1.40
2022-07-29T12:39:42.544Z,1.20
2022-07-29T12:42:18.727Z,1.03
2022-07-29T12:44:51.710Z,1.00
2022-07-29T12:47:21.253Z,0.90
2022-07-29T12:49:51.485Z,1.20
2022-07-29T12:52:30.960Z,0.83
2022-07-29T12:55:00.315Z,0.80
2022-07-29T12:57:29.986Z,1.10
2022-07-29T13:00:05.046Z,1.17
2022-07-29T13:02:34.040Z,0.90
2022-07-29T13:05:04.561Z,1.20
2022-07-29T13:07:55.205Z,1.10
2022-07-29T13:10:25.336Z,0.80
2022-07-29T13:13:04.906Z,1.00
2022-07-29T13:15:34.436Z,1.00
2022-07-29T13:18:03.378Z,0.97
2022-07-29T13:20:32.463Z,0.70
2022-07-29T13:23:01.835Z,0.83
2022-07-29T13:25:32.276Z,0.97
2022-07-29T13:28:01.250Z,1.00
2022-07-29T13:30:30.443Z,1.07
2022-07-29T13:32:59.482Z,1.30
2022-07-29T13:35:30.195Z,1.00
2022-07-29T13:37:58.759Z,0.80
2022-07-29T13:40:27.487Z,0.80
2022-07-29T13:42:56.463Z,1.10
2022-07-29T13:45:25.332Z,0.90
2022-07-29T13:47:57.714Z,1.07
2022-07-29T13:50:27.159Z,1.33
2022-07-29T13:52:55.780Z,1.20
2022-07-29T13:55:24.721Z,0.73
2022-07-29T13:57:53.689Z,1.20
2022-07-29T14:00:24.021Z,1.10
2022-07-29T14:02:53.003Z,1.10
2022-07-29T14:05:21.648Z,1.37
2022-07-29T14:07:52.743Z,1.00
2022-07-29T14:10:21.538Z,0.73
2022-07-29T14:12:53.417Z,0.97
2022-07-29T14:15:23.805Z,0.90
2022-07-29T14:17:53.067Z,0.77
2022-07-29T14:20:21.708Z,1.30
2022-07-29T14:22:53.256Z,1.20
2022-07-29T14:25:22.233Z,1.27
2022-07-29T14:27:54.764Z,0.87
2022-07-29T14:30:23.457Z,1.00
2022-07-29T14:32:52.493Z,0.80
2022-07-29T14:35:21.527Z,1.00
2022-07-29T14:37:52.910Z,1.03
2022-07-29T14:40:22.038Z,1.00
2022-07-29T14:42:52.197Z,1.13
2022-07-29T14:45:21.044Z,1.43
2022-07-29T14:47:51.383Z,1.00
2022-07-29T14:50:31.297Z,1.13
2022-07-29T14:53:01.241Z,1.10
2022-07-29T14:55:30.156Z,1.40
2022-07-29T14:58:07.963Z,1.07
2022-07-29T15:00:39.933Z,0.80
2022-07-29T15:03:11.205Z,1.00
2022-07-29T15:05:40.147Z,1.20
2022-07-29T15:08:08.929Z,0.93
2022-07-29T15:10:37.537Z,1.00
2022-07-29T15:13:06.275Z,1.20
2022-07-29T15:15:35.294Z,1.10
2022-07-29T15:18:04.433Z,1.10
2022-07-29T15:20:33.010Z,1.20
2022-07-29T15:23:01.608Z,0.93
2022-07-29T15:25:30.257Z,0.90
2022-07-29T15:28:02.693Z,0.80
2022-07-29T15:30:34.302Z,1.03
2022-07-29T15:33:04.763Z,1.23
2022-07-29T15:35:40.337Z,0.83
2022-07-29T15:38:09.768Z,1.00
2022-07-29T15:40:41.575Z,0.80
2022-07-29T15:43:10.487Z,1.17
2022-07-29T15:45:40.740Z,1.13
2022-07-29T15:48:14.676Z,1.33
2022-07-29T15:50:43.668Z,0.87
2022-07-29T15:53:15.983Z,1.00
2022-07-29T15:55:44.707Z,0.90
2022-07-29T15:58:13.422Z,1.20
2022-07-29T16:00:42.059Z,0.80
2022-07-29T16:03:10.668Z,0.80
2022-07-29T16:05:39.646Z,1.07
2022-07-29T16:08:08.425Z,0.77
2022-07-29T16:10:37.024Z,0.77
2022-07-29T16:13:05.774Z,1.20
2022-07-29T16:15:34.414Z,1.10
2022-07-29T16:18:05.663Z,0.70
2022-07-29T16:20:34.523Z,0.87
2022-07-29T16:23:03.776Z,1.10
2022-07-29T16:25:58.515Z,1.10
2022-07-29T16:28:23.777Z,1.10
2022-07-29T16:30:52.650Z,1.20
2022-07-29T16:33:21.578Z,1.07
2022-07-29T16:35:51.158Z,1.30
2022-07-29T16:38:19.808Z,1.30
2022-07-29T16:40:48.632Z,1.07
2022-07-29T16:43:21.110Z,1.07
2022-07-29T16:45:52.124Z,1.30
2022-07-29T16:48:21.036Z,1.10
2022-07-29T16:50:52.452Z,1.10
2022-07-29T16:53:21.185Z,1.00
2022-07-29T16:55:50.958Z,1.00
2022-07-29T16:58:20.466Z,1.15
2022-07-29T17:00:49.752Z,1.33
2022-07-29T17:03:20.434Z,1.60
2022-07-29T17:05:53.796Z,1.45
2022-07-29T17:08:23.844Z,1.30
2022-07-29T17:10:52.717Z,1.23
2022-07-29T17:13:21.423Z,1.20
2022-07-29T17:15:50.650Z,1.20
2022-07-29T17:18:19.178Z,1.30
2022-07-29T17:20:47.659Z,1.13
2022-07-29T17:23:16.558Z,1.20
2022-07-29T17:25:45.285Z,1.40
2022-07-29T17:28:16.230Z,1.03
2022-07-29T17:30:44.878Z,1.17
2022-07-29T17:33:13.640Z,1.20
2022-07-29T17:36:00.916Z,1.23
2022-07-29T17:38:29.573Z,0.87
2022-07-29T17:40:58.325Z,1.10
2022-07-29T17:43:27.488Z,1.20
2022-07-29T17:45:59.526Z,1.20
2022-07-29T17:48:28.441Z,1.70
2022-07-29T17:50:58.107Z,1.30
2022-07-29T17:53:26.631Z,1.00
2022-07-29T17:55:57.576Z,1.00
2022-07-29T17:58:26.471Z,1.03
2022-07-29T18:00:55.399Z,1.10
2022-07-29T18:03:24.845Z,1.73
2022-07-29T18:05:53.036Z,1.10
2022-07-29T18:08:22.703Z,0.87
2022-07-29T18:10:53.743Z,1.13
2022-07-29T18:13:22.974Z,1.07
2022-07-29T18:15:52.320Z,1.20
2022-07-29T18:18:21.033Z,1.10
2022-07-29T18:20:50.845Z,1.40
2022-07-29T18:23:19.436Z,1.20
2022-07-29T18:25:47.937Z,1.20
2022-07-29T18:28:16.518Z,1.13
2022-07-29T18:30:46.432Z,1.50
2022-07-29T18:36:10.856Z,1.30
2022-07-29T18:38:41.106Z,1.60
2022-07-29T18:41:09.765Z,1.13
2022-07-29T18:43:38.230Z,1.20
2022-07-29T18:46:07.072Z,1.50
2022-07-29T18:48:35.687Z,1.30
2022-07-29T18:51:09.486Z,1.23
2022-07-29T18:53:38.317Z,1.20
2022-07-29T18:56:07.090Z,1.13
2022-07-29T18:58:37.919Z,1.40
2022-07-29T19:01:07.004Z,1.13
2022-07-29T19:03:35.582Z,1.70
2022-07-29T19:06:05.133Z,1.70
2022-07-29T19:08:34.067Z,1.17
2022-07-29T19:11:02.592Z,1.50
2022-07-29T19:13:31.461Z,1.27
2022-07-29T19:16:00.181Z,1.33
2022-07-29T19:18:29.101Z,1.17
2022-07-29T19:20:57.743Z,1.10
2022-07-29T19:23:26.318Z,1.03
2022-07-29T19:25:56.714Z,1.43
2022-07-29T19:28:25.934Z,1.87
2022-07-29T19:30:55.117Z,1.30
2022-07-29T19:33:24.346Z,1.20
2022-07-29T19:35:55.133Z,1.43
2022-07-29T19:38:24.162Z,1.47
2022-07-29T19:40:52.951Z,1.63
2022-07-29T19:43:50.379Z,1.47
2022-07-29T19:46:10.375Z,1.30
2022-07-29T19:48:39.605Z,1.40
2022-07-29T19:51:08.585Z,1.30
2022-07-29T19:53:37.388Z,1.70
2022-07-29T19:56:06.695Z,1.10
2022-07-29T19:58:38.747Z,1.10
2022-07-29T20:01:09.988Z,1.63
2022-07-29T20:03:40.604Z,1.40
2022-07-29T20:06:09.448Z,1.37
2022-07-29T20:08:38.821Z,0.90
2022-07-29T20:11:07.787Z,1.73
2022-07-29T20:13:36.495Z,1.10
2022-07-29T20:16:07.656Z,1.47
2022-07-29T20:18:36.717Z,1.20
2022-07-29T20:21:05.420Z,1.37
2022-07-29T20:23:34.072Z,1.73
2022-07-29T20:26:05.121Z,1.50
2022-07-29T20:28:39.713Z,1.40
2022-07-29T20:31:09.640Z,1.40
2022-07-29T20:33:38.786Z,1.10
2022-07-29T20:36:08.110Z,1.00
2022-07-29T20:38:36.917Z,1.13
2022-07-29T20:41:06.124Z,1.13
2022-07-29T20:43:38.947Z,1.43
2022-07-29T20:46:08.246Z,1.30
2022-07-29T20:48:39.963Z,1.40
2022-07-29T20:51:08.920Z,1.40
2022-07-29T20:53:39.549Z,1.03
2022-07-29T20:56:08.807Z,1.27
2022-07-29T20:58:38.199Z,1.33
2022-07-29T21:01:07.796Z,1.30
2022-07-29T21:03:37.100Z,1.40
2022-07-29T21:06:07.490Z,1.20
2022-07-29T21:08:36.596Z,1.23
2022-07-29T21:11:06.224Z,1.13
2022-07-29T21:13:37.977Z,0.87
2022-07-29T21:16:12.615Z,1.53
2022-07-29T21:18:45.935Z,1.00
2022-07-29T21:21:16.298Z,1.50
2022-07-29T21:23:46.020Z,1.33
2022-07-29T21:26:15.631Z,1.30
2022-07-29T21:28:44.345Z,1.37
2022-07-29T21:31:16.167Z,1.33
2022-07-29T21:33:46.479Z,1.00
2022-07-29T21:36:46.778Z,1.15
2022-07-29T21:39:07.464Z,1.33
2022-07-29T21:41:37.258Z,1.10
2022-07-29T21:44:07.857Z,1.20
2022-07-29T21:46:36.673Z,1.30
2022-07-29T21:49:05.772Z,1.30
2022-07-29T21:51:34.865Z,1.17
2022-07-29T21:54:04.194Z,1.23
2022-07-29T21:56:33.159Z,1.50
2022-07-29T21:59:02.845Z,1.13
2022-07-29T22:01:39.039Z,1.30
2022-07-29T22:04:11.119Z,1.63
2022-07-29T22:06:39.966Z,1.40
2022-07-29T22:09:10.316Z,1.17
2022-07-29T22:11:39.123Z,1.07
2022-07-29T22:14:08.062Z,1.30
2022-07-29T22:16:36.681Z,1.03
2022-07-29T22:19:05.598Z,1.20
2022-07-29T22:21:34.642Z,1.30
2022-07-29T22:24:03.533Z,1.30
2022-07-29T22:29:27.046Z,1.43
2022-07-29T22:31:55.905Z,1.10
2022-07-29T22:34:24.815Z,1.17
2022-07-29T22:37:03.738Z,1.00
2022-07-29T22:39:32.857Z,1.10
2022-07-29T22:42:01.657Z,1.33
2022-07-29T22:44:30.740Z,1.13
2022-07-29T22:46:59.953Z,1.30
2022-07-29T22:49:29.516Z,1.30
2022-07-29T22:51:58.236Z,1.20
2022-07-29T22:54:27.233Z,1.10
2022-07-29T22:56:55.883Z,1.00
2022-07-29T22:59:24.670Z,1.03
2022-07-29T23:01:53.327Z,1.10
2022-07-29T23:04:23.477Z,0.80
2022-07-29T23:06:52.863Z,1.40
2022-07-29T23:09:21.908Z,1.13
2022-07-29T23:11:51.393Z,1.20
2022-07-29T23:14:20.216Z,1.00
2022-07-29T23:16:49.239Z,1.43
2022-07-29T23:19:18.644Z,1.30
2022-07-29T23:21:47.470Z,1.23
2022-07-29T23:24:16.278Z,1.47
2022-07-29T23:26:45.525Z,1.40
2022-07-29T23:29:14.113Z,1.40
2022-07-29T23:31:48.090Z,1.33
2022-07-29T23:34:17.689Z,1.40
2022-07-29T23:36:46.215Z,1.75
2022-07-29T23:39:14.857Z,1.50
2022-07-29T23:41:43.505Z,1.40
2022-07-29T23:44:12.419Z,1.40
2022-07-29T23:46:41.424Z,1.37
2022-07-29T23:49:10.519Z,1.30
2022-07-29T23:51:39.309Z,1.17
2022-07-29T23:54:08.410Z,1.50
2022-07-29T23:56:37.215Z,1.40
2022-07-29T23:59:06.175Z,1.43
